sensor_id;sensor_type;location;lat;lon;timestamp;P1;durP1;ratioP1;P2;durP2;ratioP2
21886;SDS011;11108;49.988;8.182;2023-10-09T00:00:11;2.90;;;2.53;;
21886;SDS011;11108;49.988;8.182;2023-10-09T00:02:55;2.00;;;1.90;;
21886;SDS011;11108;49.988;8.182;2023-10-09T00:05:20;2.57;;;2.37;;
21886;SDS011;11108;49.988;8.182;2023-10-09T00:07:56;2.50;;;2.30;;
21886;SDS011;11108;49.988;8.182;2023-10-09T00:10:21;2.27;;;2.13;;
21886;SDS011;11108;49.988;8.182;2023-10-09T00:12:46;2.70;;;2.50;;
21886;SDS011;11108;49.988;8.182;2023-10-09T00:15:14;2.10;;;2.00;;
21886;SDS011;11108;49.988;8.182;2023-10-09T00:17:39;2.60;;;2.40;;
21886;SDS011;11108;49.988;8.182;2023-10-09T00:20:04;2.93;;;2.60;;
21886;SDS011;11108;49.988;8.182;2023-10-09T00:22:33;3.00;;;2.50;;
21886;SDS011;11108;49.988;8.182;2023-10-09T00:25:03;3.67;;;2.20;;
21886;SDS011;11108;49.988;8.182;2023-10-09T00:27:41;2.47;;;2.30;;
21886;SDS011;11108;49.988;8.182;2023-10-09T00:30:07;2.93;;;2.43;;
21886;SDS011;11108;49.988;8.182;2023-10-09T00:32:34;2.87;;;2.10;;
21886;SDS011;11108;49.988;8.182;2023-10-09T00:35:07;2.50;;;2.30;;
21886;SDS011;11108;49.988;8.182;2023-10-09T00:37:58;2.57;;;2.37;;
21886;SDS011;11108;49.988;8.182;2023-10-09T00:40:31;2.23;;;2.13;;
21886;SDS011;11108;49.988;8.182;2023-10-09T00:42:59;2.27;;;2.17;;
21886;SDS011;11108;49.988;8.182;2023-10-09T00:45:27;2.10;;;1.90;;
21886;SDS011;11108;49.988;8.182;2023-10-09T00:47:57;2.20;;;2.00;;
21886;SDS011;11108;49.988;8.182;2023-10-09T00:50:24;3.00;;;2.13;;
21886;SDS011;11108;49.988;8.182;2023-10-09T00:52:52;2.53;;;2.20;;
21886;SDS011;11108;49.988;8.182;2023-10-09T00:55:19;2.30;;;2.17;;
21886;SDS011;11108;49.988;8.182;2023-10-09T00:58:11;2.63;;;2.43;;
21886;SDS011;11108;49.988;8.182;2023-10-09T01:00:38;2.60;;;2.40;;
21886;SDS011;11108;49.988;8.182;2023-10-09T01:03:10;3.13;;;2.27;;
21886;SDS011;11108;49.988;8.182;2023-10-09T01:05:41;2.43;;;2.23;;
21886;SDS011;11108;49.988;8.182;2023-10-09T01:08:16;2.80;;;2.60;;
21886;SDS011;11108;49.988;8.182;2023-10-09T01:10:50;2.47;;;2.07;;
21886;SDS011;11108;49.988;8.182;2023-10-09T01:13:22;2.40;;;2.20;;
21886;SDS011;11108;49.988;8.182;2023-10-09T01:15:52;2.63;;;2.40;;
21886;SDS011;11108;49.988;8.182;2023-10-09T01:18:18;2.17;;;2.07;;
21886;SDS011;11108;49.988;8.182;2023-10-09T01:20:45;3.50;;;2.13;;
21886;SDS011;11108;49.988;8.182;2023-10-09T01:23:10;3.67;;;2.43;;
21886;SDS011;11108;49.988;8.182;2023-10-09T01:25:36;2.20;;;2.00;;
21886;SDS011;11108;49.988;8.182;2023-10-09T01:28:08;2.30;;;2.20;;
21886;SDS011;11108;49.988;8.182;2023-10-09T01:30:34;2.30;;;2.20;;
21886;SDS011;11108;49.988;8.182;2023-10-09T01:32:59;2.17;;;2.03;;
21886;SDS011;11108;49.988;8.182;2023-10-09T01:35:36;2.23;;;2.10;;
21886;SDS011;11108;49.988;8.182;2023-10-09T01:38:11;2.70;;;2.50;;
21886;SDS011;11108;49.988;8.182;2023-10-09T01:40:39;2.50;;;2.30;;
21886;SDS011;11108;49.988;8.182;2023-10-09T01:43:04;2.23;;;2.10;;
21886;SDS011;11108;49.988;8.182;2023-10-09T01:45:30;2.00;;;1.90;;
21886;SDS011;11108;49.988;8.182;2023-10-09T01:48:06;2.37;;;2.27;;
21886;SDS011;11108;49.988;8.182;2023-10-09T01:50:33;2.90;;;2.70;;
21886;SDS011;11108;49.988;8.182;2023-10-09T01:53:00;2.47;;;2.27;;
21886;SDS011;11108;49.988;8.182;2023-10-09T01:55:31;2.37;;;2.17;;
21886;SDS011;11108;49.988;8.182;2023-10-09T01:58:00;2.47;;;2.27;;
21886;SDS011;11108;49.988;8.182;2023-10-09T02:00:30;2.37;;;2.17;;
21886;SDS011;11108;49.988;8.182;2023-10-09T02:02:55;2.47;;;2.23;;
21886;SDS011;11108;49.988;8.182;2023-10-09T02:05:21;2.10;;;2.00;;
21886;SDS011;11108;49.988;8.182;2023-10-09T02:07:46;2.57;;;2.37;;
21886;SDS011;11108;49.988;8.182;2023-10-09T02:10:18;2.47;;;2.20;;
21886;SDS011;11108;49.988;8.182;2023-10-09T02:12:50;2.30;;;2.20;;
21886;SDS011;11108;49.988;8.182;2023-10-09T02:15:28;2.90;;;2.43;;
21886;SDS011;11108;49.988;8.182;2023-10-09T02:18:06;2.57;;;2.43;;
21886;SDS011;11108;49.988;8.182;2023-10-09T02:23:37;2.70;;;2.50;;
21886;SDS011;11108;49.988;8.182;2023-10-09T02:26:14;2.13;;;2.03;;
21886;SDS011;11108;49.988;8.182;2023-10-09T02:28:48;2.53;;;2.33;;
21886;SDS011;11108;49.988;8.182;2023-10-09T02:31:18;2.10;;;2.00;;
21886;SDS011;11108;49.988;8.182;2023-10-09T02:33:47;2.63;;;2.43;;
21886;SDS011;11108;49.988;8.182;2023-10-09T02:36:13;2.37;;;2.17;;
21886;SDS011;11108;49.988;8.182;2023-10-09T02:38:38;2.10;;;2.00;;
21886;SDS011;11108;49.988;8.182;2023-10-09T02:41:07;2.77;;;2.53;;
21886;SDS011;11108;49.988;8.182;2023-10-09T02:43:35;2.07;;;1.97;;
21886;SDS011;11108;49.988;8.182;2023-10-09T02:46:19;2.40;;;2.20;;
21886;SDS011;11108;49.988;8.182;2023-10-09T02:48:48;2.07;;;1.93;;
21886;SDS011;11108;49.988;8.182;2023-10-09T02:51:21;2.87;;;2.53;;
21886;SDS011;11108;49.988;8.182;2023-10-09T02:53:55;2.40;;;2.20;;
21886;SDS011;11108;49.988;8.182;2023-10-09T02:56:21;2.70;;;2.50;;
21886;SDS011;11108;49.988;8.182;2023-10-09T02:58:53;2.00;;;1.90;;
21886;SDS011;11108;49.988;8.182;2023-10-09T03:01:18;2.20;;;2.10;;
21886;SDS011;11108;49.988;8.182;2023-10-09T03:03:44;2.20;;;2.10;;
21886;SDS011;11108;49.988;8.182;2023-10-09T03:06:10;2.60;;;2.40;;
21886;SDS011;11108;49.988;8.182;2023-10-09T03:08:37;2.20;;;2.10;;
21886;SDS011;11108;49.988;8.182;2023-10-09T03:11:02;2.50;;;2.40;;
21886;SDS011;11108;49.988;8.182;2023-10-09T03:13:30;2.50;;;2.30;;
21886;SDS011;11108;49.988;8.182;2023-10-09T03:15:58;2.17;;;2.00;;
21886;SDS011;11108;49.988;8.182;2023-10-09T03:18:23;2.53;;;2.27;;
21886;SDS011;11108;49.988;8.182;2023-10-09T03:20:48;2.50;;;2.13;;
21886;SDS011;11108;49.988;8.182;2023-10-09T03:23:15;2.33;;;2.23;;
21886;SDS011;11108;49.988;8.182;2023-10-09T03:25:40;2.60;;;2.40;;
21886;SDS011;11108;49.988;8.182;2023-10-09T03:28:10;2.33;;;2.13;;
21886;SDS011;11108;49.988;8.182;2023-10-09T03:30:35;2.60;;;2.40;;
21886;SDS011;11108;49.988;8.182;2023-10-09T03:33:02;2.90;;;2.70;;
21886;SDS011;11108;49.988;8.182;2023-10-09T03:35:29;2.77;;;2.53;;
21886;SDS011;11108;49.988;8.182;2023-10-09T03:37:58;2.43;;;2.23;;
21886;SDS011;11108;49.988;8.182;2023-10-09T03:40:43;2.17;;;2.07;;
21886;SDS011;11108;49.988;8.182;2023-10-09T03:43:09;2.33;;;2.20;;
21886;SDS011;11108;49.988;8.182;2023-10-09T03:45:35;2.53;;;2.33;;
21886;SDS011;11108;49.988;8.182;2023-10-09T03:48:03;2.70;;;2.60;;
21886;SDS011;11108;49.988;8.182;2023-10-09T03:50:37;2.63;;;2.40;;
21886;SDS011;11108;49.988;8.182;2023-10-09T03:53:03;2.60;;;2.40;;
21886;SDS011;11108;49.988;8.182;2023-10-09T03:55:31;2.77;;;2.40;;
21886;SDS011;11108;49.988;8.182;2023-10-09T03:57:57;2.77;;;2.43;;
21886;SDS011;11108;49.988;8.182;2023-10-09T04:00:27;2.40;;;2.30;;
21886;SDS011;11108;49.988;8.182;2023-10-09T04:02:56;2.47;;;2.27;;
21886;SDS011;11108;49.988;8.182;2023-10-09T04:05:24;2.47;;;2.30;;
21886;SDS011;11108;49.988;8.182;2023-10-09T04:07:50;3.07;;;2.30;;
21886;SDS011;11108;49.988;8.182;2023-10-09T04:10:18;2.50;;;2.23;;
21886;SDS011;11108;49.988;8.182;2023-10-09T04:13:08;2.53;;;2.33;;
21886;SDS011;11108;49.988;8.182;2023-10-09T04:15:37;2.50;;;2.40;;
21886;SDS011;11108;49.988;8.182;2023-10-09T04:18:03;2.47;;;2.33;;
21886;SDS011;11108;49.988;8.182;2023-10-09T04:20:30;2.90;;;2.70;;
21886;SDS011;11108;49.988;8.182;2023-10-09T04:22:58;2.20;;;2.10;;
21886;SDS011;11108;49.988;8.182;2023-10-09T04:25:30;2.20;;;2.10;;
21886;SDS011;11108;49.988;8.182;2023-10-09T04:28:06;2.47;;;2.27;;
21886;SDS011;11108;49.988;8.182;2023-10-09T04:30:38;2.83;;;2.63;;
21886;SDS011;11108;49.988;8.182;2023-10-09T04:33:11;2.50;;;2.30;;
21886;SDS011;11108;49.988;8.182;2023-10-09T04:35:45;2.80;;;2.60;;
21886;SDS011;11108;49.988;8.182;2023-10-09T04:38:31;2.60;;;2.40;;
21886;SDS011;11108;49.988;8.182;2023-10-09T04:40:59;2.53;;;2.33;;
21886;SDS011;11108;49.988;8.182;2023-10-09T04:43:24;3.00;;;2.80;;
21886;SDS011;11108;49.988;8.182;2023-10-09T04:45:51;2.70;;;2.50;;
21886;SDS011;11108;49.988;8.182;2023-10-09T04:48:33;2.50;;;2.30;;
21886;SDS011;11108;49.988;8.182;2023-10-09T04:51:01;2.70;;;2.50;;
21886;SDS011;11108;49.988;8.182;2023-10-09T04:53:45;2.53;;;2.33;;
21886;SDS011;11108;49.988;8.182;2023-10-09T04:56:20;2.50;;;2.30;;
21886;SDS011;11108;49.988;8.182;2023-10-09T04:58:49;2.37;;;2.17;;
21886;SDS011;11108;49.988;8.182;2023-10-09T05:01:14;2.60;;;2.40;;
21886;SDS011;11108;49.988;8.182;2023-10-09T05:03:41;2.37;;;2.17;;
21886;SDS011;11108;49.988;8.182;2023-10-09T05:06:07;2.58;;;2.38;;
21886;SDS011;11108;49.988;8.182;2023-10-09T05:09:07;2.93;;;2.50;;
21886;SDS011;11108;49.988;8.182;2023-10-09T05:11:38;3.00;;;2.40;;
21886;SDS011;11108;49.988;8.182;2023-10-09T05:14:19;2.50;;;2.30;;
21886;SDS011;11108;49.988;8.182;2023-10-09T05:16:51;2.77;;;2.57;;
21886;SDS011;11108;49.988;8.182;2023-10-09T05:19:20;2.50;;;2.30;;
21886;SDS011;11108;49.988;8.182;2023-10-09T05:22:15;2.50;;;2.30;;
21886;SDS011;11108;49.988;8.182;2023-10-09T05:25:01;2.73;;;2.50;;
21886;SDS011;11108;49.988;8.182;2023-10-09T05:27:26;3.07;;;2.77;;
21886;SDS011;11108;49.988;8.182;2023-10-09T05:30:10;2.50;;;2.30;;
21886;SDS011;11108;49.988;8.182;2023-10-09T05:32:52;2.50;;;2.30;;
21886;SDS011;11108;49.988;8.182;2023-10-09T05:35:20;2.53;;;2.33;;
21886;SDS011;11108;49.988;8.182;2023-10-09T05:37:54;2.33;;;2.20;;
21886;SDS011;11108;49.988;8.182;2023-10-09T05:40:26;2.60;;;2.40;;
21886;SDS011;11108;49.988;8.182;2023-10-09T05:42:56;3.00;;;2.80;;
21886;SDS011;11108;49.988;8.182;2023-10-09T05:45:24;2.83;;;2.57;;
21886;SDS011;11108;49.988;8.182;2023-10-09T05:47:50;2.60;;;2.40;;
21886;SDS011;11108;49.988;8.182;2023-10-09T05:50:22;3.10;;;2.90;;
21886;SDS011;11108;49.988;8.182;2023-10-09T05:52:47;2.77;;;2.30;;
21886;SDS011;11108;49.988;8.182;2023-10-09T05:55:19;2.60;;;2.40;;
21886;SDS011;11108;49.988;8.182;2023-10-09T05:57:44;2.80;;;2.60;;
21886;SDS011;11108;49.988;8.182;2023-10-09T06:00:24;2.63;;;2.43;;
21886;SDS011;11108;49.988;8.182;2023-10-09T06:03:08;2.83;;;2.47;;
21886;SDS011;11108;49.988;8.182;2023-10-09T06:05:46;2.80;;;2.60;;
21886;SDS011;11108;49.988;8.182;2023-10-09T06:08:27;3.07;;;2.67;;
21886;SDS011;11108;49.988;8.182;2023-10-09T06:11:03;2.90;;;2.10;;
21886;SDS011;11108;49.988;8.182;2023-10-09T06:13:51;2.97;;;2.70;;
21886;SDS011;11108;49.988;8.182;2023-10-09T06:16:28;2.60;;;2.40;;
21886;SDS011;11108;49.988;8.182;2023-10-09T06:19:12;2.80;;;2.60;;
21886;SDS011;11108;49.988;8.182;2023-10-09T06:21:37;2.97;;;2.77;;
21886;SDS011;11108;49.988;8.182;2023-10-09T06:24:18;2.73;;;2.40;;
21886;SDS011;11108;49.988;8.182;2023-10-09T06:26:44;2.97;;;2.67;;
21886;SDS011;11108;49.988;8.182;2023-10-09T06:29:28;2.77;;;2.57;;
21886;SDS011;11108;49.988;8.182;2023-10-09T06:32:09;2.77;;;2.53;;
21886;SDS011;11108;49.988;8.182;2023-10-09T06:34:46;2.60;;;2.40;;
21886;SDS011;11108;49.988;8.182;2023-10-09T06:37:16;2.37;;;2.27;;
21886;SDS011;11108;49.988;8.182;2023-10-09T06:39:50;2.73;;;2.50;;
21886;SDS011;11108;49.988;8.182;2023-10-09T06:42:36;2.80;;;2.60;;
21886;SDS011;11108;49.988;8.182;2023-10-09T06:45:07;2.97;;;2.37;;
21886;SDS011;11108;49.988;8.182;2023-10-09T06:47:34;3.30;;;2.93;;
21886;SDS011;11108;49.988;8.182;2023-10-09T06:50:18;2.60;;;2.40;;
21886;SDS011;11108;49.988;8.182;2023-10-09T06:52:46;2.97;;;2.77;;
21886;SDS011;11108;49.988;8.182;2023-10-09T06:55:35;2.60;;;2.40;;
21886;SDS011;11108;49.988;8.182;2023-10-09T06:58:13;2.67;;;2.47;;
21886;SDS011;11108;49.988;8.182;2023-10-09T07:00:40;2.13;;;2.03;;
21886;SDS011;11108;49.988;8.182;2023-10-09T07:03:27;2.33;;;2.10;;
21886;SDS011;11108;49.988;8.182;2023-10-09T07:06:05;3.20;;;2.93;;
21886;SDS011;11108;49.988;8.182;2023-10-09T07:08:34;2.50;;;2.30;;
21886;SDS011;11108;49.988;8.182;2023-10-09T07:11:03;2.97;;;2.67;;
21886;SDS011;11108;49.988;8.182;2023-10-09T07:13:46;2.50;;;2.10;;
21886;SDS011;11108;49.988;8.182;2023-10-09T07:16:23;2.63;;;2.43;;
21886;SDS011;11108;49.988;8.182;2023-10-09T07:18:49;3.17;;;2.57;;
21886;SDS011;11108;49.988;8.182;2023-10-09T07:21:14;4.17;;;2.53;;
21886;SDS011;11108;49.988;8.182;2023-10-09T07:23:43;2.50;;;2.30;;
21886;SDS011;11108;49.988;8.182;2023-10-09T07:26:14;4.17;;;2.43;;
21886;SDS011;11108;49.988;8.182;2023-10-09T07:29:01;5.30;;;2.80;;
21886;SDS011;11108;49.988;8.182;2023-10-09T07:31:41;3.63;;;2.67;;
21886;SDS011;11108;49.988;8.182;2023-10-09T07:34:10;3.50;;;2.40;;
21886;SDS011;11108;49.988;8.182;2023-10-09T07:36:55;2.90;;;2.67;;
21886;SDS011;11108;49.988;8.182;2023-10-09T07:39:21;2.73;;;2.50;;
21886;SDS011;11108;49.988;8.182;2023-10-09T07:41:47;2.57;;;2.37;;
21886;SDS011;11108;49.988;8.182;2023-10-09T07:44:26;3.93;;;2.23;;
21886;SDS011;11108;49.988;8.182;2023-10-09T07:47:04;3.00;;;2.30;;
21886;SDS011;11108;49.988;8.182;2023-10-09T07:49:58;2.60;;;2.40;;
21886;SDS011;11108;49.988;8.182;2023-10-09T07:52:24;2.87;;;2.60;;
21886;SDS011;11108;49.988;8.182;2023-10-09T07:54:51;3.10;;;2.23;;
21886;SDS011;11108;49.988;8.182;2023-10-09T07:57:18;2.50;;;2.30;;
21886;SDS011;11108;49.988;8.182;2023-10-09T07:59:50;2.70;;;2.50;;
21886;SDS011;11108;49.988;8.182;2023-10-09T08:02:36;3.33;;;2.70;;
21886;SDS011;11108;49.988;8.182;2023-10-09T08:05:03;2.63;;;2.43;;
21886;SDS011;11108;49.988;8.182;2023-10-09T08:07:31;2.57;;;2.37;;
21886;SDS011;11108;49.988;8.182;2023-10-09T08:10:07;2.77;;;2.57;;
21886;SDS011;11108;49.988;8.182;2023-10-09T08:12:38;3.07;;;2.27;;
21886;SDS011;11108;49.988;8.182;2023-10-09T08:15:05;2.80;;;2.53;;
21886;SDS011;11108;49.988;8.182;2023-10-09T08:17:52;4.77;;;2.90;;
21886;SDS011;11108;49.988;8.182;2023-10-09T08:20:39;3.47;;;2.87;;
21886;SDS011;11108;49.988;8.182;2023-10-09T08:23:23;2.57;;;2.30;;
21886;SDS011;11108;49.988;8.182;2023-10-09T08:26:00;2.40;;;2.20;;
21886;SDS011;11108;49.988;8.182;2023-10-09T08:28:41;2.33;;;2.13;;
21886;SDS011;11108;49.988;8.182;2023-10-09T08:31:11;3.37;;;2.57;;
21886;SDS011;11108;49.988;8.182;2023-10-09T08:33:55;2.83;;;2.63;;
21886;SDS011;11108;49.988;8.182;2023-10-09T08:36:24;3.20;;;2.60;;
21886;SDS011;11108;49.988;8.182;2023-10-09T08:38:53;2.50;;;2.30;;
21886;SDS011;11108;49.988;8.182;2023-10-09T08:41:23;3.70;;;2.77;;
21886;SDS011;11108;49.988;8.182;2023-10-09T08:43:55;4.17;;;2.70;;
21886;SDS011;11108;49.988;8.182;2023-10-09T08:46:23;3.77;;;2.30;;
21886;SDS011;11108;49.988;8.182;2023-10-09T08:48:48;3.20;;;2.63;;
21886;SDS011;11108;49.988;8.182;2023-10-09T08:51:14;3.17;;;2.40;;
21886;SDS011;11108;49.988;8.182;2023-10-09T08:53:39;2.63;;;2.30;;
21886;SDS011;11108;49.988;8.182;2023-10-09T08:56:08;2.83;;;2.50;;
21886;SDS011;11108;49.988;8.182;2023-10-09T08:58:33;2.90;;;2.63;;
21886;SDS011;11108;49.988;8.182;2023-10-09T09:01:02;3.08;;;2.78;;
21886;SDS011;11108;49.988;8.182;2023-10-09T09:03:36;2.88;;;2.60;;
21886;SDS011;11108;49.988;8.182;2023-10-09T09:06:02;2.73;;;2.53;;
21886;SDS011;11108;49.988;8.182;2023-10-09T09:08:28;2.40;;;2.20;;
21886;SDS011;11108;49.988;8.182;2023-10-09T09:10:58;3.03;;;2.30;;
21886;SDS011;11108;49.988;8.182;2023-10-09T09:16:24;2.60;;;2.40;;
21886;SDS011;11108;49.988;8.182;2023-10-09T09:21:40;3.13;;;2.37;;
21886;SDS011;11108;49.988;8.182;2023-10-09T09:24:10;3.83;;;2.73;;
21886;SDS011;11108;49.988;8.182;2023-10-09T09:26:52;3.40;;;2.80;;
21886;SDS011;11108;49.988;8.182;2023-10-09T09:32:02;2.92;;;2.63;;
21886;SDS011;11108;49.988;8.182;2023-10-09T09:34:46;2.70;;;2.50;;
21886;SDS011;11108;49.988;8.182;2023-10-09T09:37:18;3.63;;;2.53;;
21886;SDS011;11108;49.988;8.182;2023-10-09T09:39:44;2.77;;;2.57;;
21886;SDS011;11108;49.988;8.182;2023-10-09T09:42:09;2.67;;;2.47;;
21886;SDS011;11108;49.988;8.182;2023-10-09T09:44:42;4.57;;;3.00;;
21886;SDS011;11108;49.988;8.182;2023-10-09T09:50:12;4.03;;;3.27;;
21886;SDS011;11108;49.988;8.182;2023-10-09T09:52:47;3.90;;;3.20;;
21886;SDS011;11108;49.988;8.182;2023-10-09T09:55:15;4.80;;;3.07;;
21886;SDS011;11108;49.988;8.182;2023-10-09T09:57:46;4.93;;;3.00;;
21886;SDS011;11108;49.988;8.182;2023-10-09T10:00:16;3.13;;;2.90;;
21886;SDS011;11108;49.988;8.182;2023-10-09T10:03:05;3.37;;;3.07;;
21886;SDS011;11108;49.988;8.182;2023-10-09T10:05:31;4.78;;;3.13;;
21886;SDS011;11108;49.988;8.182;2023-10-09T10:07:57;3.57;;;3.00;;
21886;SDS011;11108;49.988;8.182;2023-10-09T10:10:40;3.67;;;3.17;;
21886;SDS011;11108;49.988;8.182;2023-10-09T10:13:54;3.03;;;2.70;;
21886;SDS011;11108;49.988;8.182;2023-10-09T10:16:06;3.43;;;3.00;;
21886;SDS011;11108;49.988;8.182;2023-10-09T10:18:59;3.67;;;3.23;;
21886;SDS011;11108;49.988;8.182;2023-10-09T10:21:28;3.80;;;3.10;;
21886;SDS011;11108;49.988;8.182;2023-10-09T10:23:56;3.22;;;3.00;;
21886;SDS011;11108;49.988;8.182;2023-10-09T10:26:31;4.50;;;3.00;;
21886;SDS011;11108;49.988;8.182;2023-10-09T10:31:56;3.10;;;2.90;;
21886;SDS011;11108;49.988;8.182;2023-10-09T10:34:22;3.67;;;3.27;;
21886;SDS011;11108;49.988;8.182;2023-10-09T10:36:49;3.33;;;3.13;;
21886;SDS011;11108;49.988;8.182;2023-10-09T10:39:17;3.53;;;2.80;;
21886;SDS011;11108;49.988;8.182;2023-10-09T10:41:53;3.63;;;3.30;;
21886;SDS011;11108;49.988;8.182;2023-10-09T10:44:28;4.03;;;3.20;;
21886;SDS011;11108;49.988;8.182;2023-10-09T10:46:59;3.37;;;3.07;;
21886;SDS011;11108;49.988;8.182;2023-10-09T10:49:25;3.50;;;3.10;;
21886;SDS011;11108;49.988;8.182;2023-10-09T10:52:01;3.47;;;2.73;;
21886;SDS011;11108;49.988;8.182;2023-10-09T10:54:40;3.93;;;3.20;;
21886;SDS011;11108;49.988;8.182;2023-10-09T10:57:13;3.37;;;3.07;;
21886;SDS011;11108;49.988;8.182;2023-10-09T10:59:44;5.40;;;3.00;;
21886;SDS011;11108;49.988;8.182;2023-10-09T11:02:10;3.90;;;3.20;;
21886;SDS011;11108;49.988;8.182;2023-10-09T11:04:35;3.10;;;2.80;;
21886;SDS011;11108;49.988;8.182;2023-10-09T11:07:10;3.67;;;3.13;;
21886;SDS011;11108;49.988;8.182;2023-10-09T11:15:10;3.13;;;2.73;;
21886;SDS011;11108;49.988;8.182;2023-10-09T11:20:49;3.58;;;2.80;;
21886;SDS011;11108;49.988;8.182;2023-10-09T11:23:27;3.53;;;3.23;;
21886;SDS011;11108;49.988;8.182;2023-10-09T11:26:04;2.97;;;2.70;;
21886;SDS011;11108;49.988;8.182;2023-10-09T11:34:24;3.43;;;3.00;;
21886;SDS011;11108;49.988;8.182;2023-10-09T11:37:00;3.07;;;2.80;;
21886;SDS011;11108;49.988;8.182;2023-10-09T11:39:27;3.53;;;2.85;;
21886;SDS011;11108;49.988;8.182;2023-10-09T11:42:15;3.83;;;3.10;;
21886;SDS011;11108;49.988;8.182;2023-10-09T11:44:55;3.97;;;3.07;;
21886;SDS011;11108;49.988;8.182;2023-10-09T11:47:20;3.60;;;2.97;;
21886;SDS011;11108;49.988;8.182;2023-10-09T11:49:52;3.07;;;2.63;;
21886;SDS011;11108;49.988;8.182;2023-10-09T11:52:23;4.78;;;2.97;;
21886;SDS011;11108;49.988;8.182;2023-10-09T11:55:04;2.65;;;2.42;;
21886;SDS011;11108;49.988;8.182;2023-10-09T11:57:39;2.80;;;2.60;;
21886;SDS011;11108;49.988;8.182;2023-10-09T12:00:05;4.30;;;3.10;;
21886;SDS011;11108;49.988;8.182;2023-10-09T12:02:53;3.10;;;2.90;;
21886;SDS011;11108;49.988;8.182;2023-10-09T12:05:18;2.50;;;2.30;;
21886;SDS011;11108;49.988;8.182;2023-10-09T12:07:47;3.00;;;2.80;;
21886;SDS011;11108;49.988;8.182;2023-10-09T12:10:12;2.80;;;2.60;;
21886;SDS011;11108;49.988;8.182;2023-10-09T12:12:40;5.57;;;3.10;;
21886;SDS011;11108;49.988;8.182;2023-10-09T12:15:11;3.13;;;2.90;;
21886;SDS011;11108;49.988;8.182;2023-10-09T12:17:42;2.97;;;2.37;;
21886;SDS011;11108;49.988;8.182;2023-10-09T12:20:09;3.10;;;2.80;;
21886;SDS011;11108;49.988;8.182;2023-10-09T12:22:39;2.70;;;2.50;;
21886;SDS011;11108;49.988;8.182;2023-10-09T12:25:05;2.80;;;2.60;;
21886;SDS011;11108;49.988;8.182;2023-10-09T12:27:34;3.80;;;2.60;;
21886;SDS011;11108;49.988;8.182;2023-10-09T12:29:59;2.70;;;2.50;;
21886;SDS011;11108;49.988;8.182;2023-10-09T12:32:24;3.57;;;2.87;;
21886;SDS011;11108;49.988;8.182;2023-10-09T12:34:49;2.80;;;2.53;;
21886;SDS011;11108;49.988;8.182;2023-10-09T12:37:15;3.10;;;2.90;;
21886;SDS011;11108;49.988;8.182;2023-10-09T12:39:42;2.95;;;2.75;;
21886;SDS011;11108;49.988;8.182;2023-10-09T12:42:08;3.27;;;3.00;;
21886;SDS011;11108;49.988;8.182;2023-10-09T12:44:33;3.30;;;3.00;;
21886;SDS011;11108;49.988;8.182;2023-10-09T12:47:03;2.63;;;2.43;;
21886;SDS011;11108;49.988;8.182;2023-10-09T12:49:29;2.90;;;2.70;;
21886;SDS011;11108;49.988;8.182;2023-10-09T12:51:55;3.00;;;2.73;;
21886;SDS011;11108;49.988;8.182;2023-10-09T12:54:21;3.20;;;2.80;;
21886;SDS011;11108;49.988;8.182;2023-10-09T12:56:51;3.50;;;3.20;;
21886;SDS011;11108;49.988;8.182;2023-10-09T12:59:17;3.73;;;2.93;;
21886;SDS011;11108;49.988;8.182;2023-10-09T13:01:44;2.50;;;2.30;;
21886;SDS011;11108;49.988;8.182;2023-10-09T13:04:13;3.10;;;2.70;;
21886;SDS011;11108;49.988;8.182;2023-10-09T13:06:42;3.30;;;3.00;;
21886;SDS011;11108;49.988;8.182;2023-10-09T13:09:11;2.63;;;2.43;;
21886;SDS011;11108;49.988;8.182;2023-10-09T13:11:38;3.10;;;2.57;;
21886;SDS011;11108;49.988;8.182;2023-10-09T13:14:03;2.70;;;2.50;;
21886;SDS011;11108;49.988;8.182;2023-10-09T13:16:36;3.43;;;2.90;;
21886;SDS011;11108;49.988;8.182;2023-10-09T13:19:02;2.80;;;2.60;;
21886;SDS011;11108;49.988;8.182;2023-10-09T13:21:34;2.87;;;2.47;;
21886;SDS011;11108;49.988;8.182;2023-10-09T13:24:02;2.97;;;2.77;;
21886;SDS011;11108;49.988;8.182;2023-10-09T13:26:27;3.10;;;2.80;;
21886;SDS011;11108;49.988;8.182;2023-10-09T13:28:55;3.23;;;2.93;;
21886;SDS011;11108;49.988;8.182;2023-10-09T13:31:21;3.30;;;3.00;;
21886;SDS011;11108;49.988;8.182;2023-10-09T13:33:50;3.07;;;2.77;;
21886;SDS011;11108;49.988;8.182;2023-10-09T13:36:19;3.07;;;2.70;;
21886;SDS011;11108;49.988;8.182;2023-10-09T13:38:51;2.80;;;2.60;;
21886;SDS011;11108;49.988;8.182;2023-10-09T13:41:18;3.17;;;2.83;;
21886;SDS011;11108;49.988;8.182;2023-10-09T13:43:43;3.47;;;2.93;;
21886;SDS011;11108;49.988;8.182;2023-10-09T13:46:09;3.37;;;3.03;;
21886;SDS011;11108;49.988;8.182;2023-10-09T13:48:35;4.20;;;2.90;;
21886;SDS011;11108;49.988;8.182;2023-10-09T13:51:12;2.93;;;2.63;;
21886;SDS011;11108;49.988;8.182;2023-10-09T13:53:44;3.03;;;2.75;;
21886;SDS011;11108;49.988;8.182;2023-10-09T13:56:19;2.67;;;2.40;;
21886;SDS011;11108;49.988;8.182;2023-10-09T13:58:45;3.00;;;2.70;;
21886;SDS011;11108;49.988;8.182;2023-10-09T14:01:11;3.70;;;3.33;;
21886;SDS011;11108;49.988;8.182;2023-10-09T14:03:36;3.27;;;2.97;;
21886;SDS011;11108;49.988;8.182;2023-10-09T14:06:03;3.58;;;3.17;;
21886;SDS011;11108;49.988;8.182;2023-10-09T14:08:37;4.70;;;2.60;;
21886;SDS011;11108;49.988;8.182;2023-10-09T14:11:10;4.47;;;3.13;;
21886;SDS011;11108;49.988;8.182;2023-10-09T14:13:39;3.87;;;3.03;;
21886;SDS011;11108;49.988;8.182;2023-10-09T14:16:04;4.53;;;3.10;;
21886;SDS011;11108;49.988;8.182;2023-10-09T14:18:29;3.47;;;2.60;;
21886;SDS011;11108;49.988;8.182;2023-10-09T14:20:55;3.00;;;2.40;;
21886;SDS011;11108;49.988;8.182;2023-10-09T14:23:21;4.03;;;2.73;;
21886;SDS011;11108;49.988;8.182;2023-10-09T14:25:46;2.73;;;2.53;;
21886;SDS011;11108;49.988;8.182;2023-10-09T14:28:14;3.50;;;2.90;;
21886;SDS011;11108;49.988;8.182;2023-10-09T14:30:43;3.30;;;3.03;;
21886;SDS011;11108;49.988;8.182;2023-10-09T14:33:10;3.37;;;3.07;;
21886;SDS011;11108;49.988;8.182;2023-10-09T14:35:38;3.80;;;2.97;;
21886;SDS011;11108;49.988;8.182;2023-10-09T14:38:04;3.10;;;2.80;;
21886;SDS011;11108;49.988;8.182;2023-10-09T14:40:36;2.80;;;2.60;;
21886;SDS011;11108;49.988;8.182;2023-10-09T14:43:06;3.20;;;2.90;;
21886;SDS011;11108;49.988;8.182;2023-10-09T14:45:35;3.10;;;2.80;;
21886;SDS011;11108;49.988;8.182;2023-10-09T14:48:01;2.70;;;2.50;;
21886;SDS011;11108;49.988;8.182;2023-10-09T14:50:26;2.97;;;2.77;;
21886;SDS011;11108;49.988;8.182;2023-10-09T14:52:51;3.37;;;2.73;;
21886;SDS011;11108;49.988;8.182;2023-10-09T14:55:17;3.13;;;2.83;;
21886;SDS011;11108;49.988;8.182;2023-10-09T14:57:46;3.47;;;3.17;;
21886;SDS011;11108;49.988;8.182;2023-10-09T15:00:12;3.80;;;2.80;;
21886;SDS011;11108;49.988;8.182;2023-10-09T15:02:39;3.20;;;2.90;;
21886;SDS011;11108;49.988;8.182;2023-10-09T15:05:04;3.30;;;2.90;;
21886;SDS011;11108;49.988;8.182;2023-10-09T15:07:30;3.30;;;3.00;;
21886;SDS011;11108;49.988;8.182;2023-10-09T15:09:55;3.40;;;3.10;;
21886;SDS011;11108;49.988;8.182;2023-10-09T15:12:26;4.50;;;3.73;;
21886;SDS011;11108;49.988;8.182;2023-10-09T15:14:51;3.97;;;3.20;;
21886;SDS011;11108;49.988;8.182;2023-10-09T15:17:18;3.23;;;2.93;;
21886;SDS011;11108;49.988;8.182;2023-10-09T15:19:43;3.33;;;3.03;;
21886;SDS011;11108;49.988;8.182;2023-10-09T15:22:10;2.93;;;2.63;;
21886;SDS011;11108;49.988;8.182;2023-10-09T15:24:36;3.10;;;2.77;;
21886;SDS011;11108;49.988;8.182;2023-10-09T15:27:01;3.30;;;3.00;;
21886;SDS011;11108;49.988;8.182;2023-10-09T15:29:27;3.40;;;3.10;;
21886;SDS011;11108;49.988;8.182;2023-10-09T15:31:57;4.00;;;3.47;;
21886;SDS011;11108;49.988;8.182;2023-10-09T15:34:29;3.13;;;2.78;;
21886;SDS011;11108;49.988;8.182;2023-10-09T15:36:56;3.77;;;3.00;;
21886;SDS011;11108;49.988;8.182;2023-10-09T15:39:22;3.23;;;2.93;;
21886;SDS011;11108;49.988;8.182;2023-10-09T15:41:48;3.30;;;3.00;;